createdAt,value
2018-10-03T00:02:25.484Z,102814.28
2018-10-03T00:04:54.167Z,102807.72
2018-10-03T00:07:22.844Z,102809.03
2018-10-03T00:09:51.556Z,102809.94
2018-10-03T00:12:20.275Z,102807.31
2018-10-03T00:14:48.956Z,102804.30
2018-10-03T00:17:17.652Z,102798.64
2018-10-03T00:19:46.328Z,102796.94
2018-10-03T00:22:14.992Z,102803.50
2018-10-03T00:24:43.656Z,102800.05
2018-10-03T00:27:12.352Z,102800.91
2018-10-03T00:29:41.021Z,102804.92
2018-10-03T00:32:09.716Z,102802.30
2018-10-03T00:34:38.408Z,102809.34
2018-10-03T00:37:07.109Z,102813.28
2018-10-03T00:39:35.818Z,102816.83
2018-10-03T00:42:04.517Z,102819.49
2018-10-03T00:44:33.199Z,102822.19
2018-10-03T00:47:01.879Z,102818.34
2018-10-03T00:49:30.584Z,102823.53
2018-10-03T00:51:59.269Z,102818.34
2018-10-03T00:54:27.959Z,102825.36
2018-10-03T00:56:56.643Z,102828.43
2018-10-03T00:59:25.332Z,102829.30
2018-10-03T01:01:54.012Z,102823.53
2018-10-03T01:04:22.722Z,102826.98
2018-10-03T01:06:51.463Z,102826.89
2018-10-03T01:09:20.123Z,102822.87
2018-10-03T01:11:48.836Z,102823.64
2018-10-03T01:14:17.537Z,102825.31
2018-10-03T01:16:46.221Z,102821.75
2018-10-03T01:19:14.973Z,102828.73
2018-10-03T01:21:43.686Z,102827.00
2018-10-03T01:24:12.392Z,102830.49
2018-10-03T01:26:41.114Z,102829.17
2018-10-03T01:29:09.801Z,102830.14
2018-10-03T01:31:38.505Z,102830.14
2018-10-03T01:34:07.423Z,102827.17
2018-10-03T01:36:36.144Z,102831.17
2018-10-03T01:39:06.583Z,102821.16
2018-10-03T01:41:35.343Z,102822.98
2018-10-03T01:44:04.076Z,102819.97
2018-10-03T01:46:32.816Z,102820.88
2018-10-03T01:49:01.509Z,102818.70
2018-10-03T01:51:30.229Z,102814.82
2018-10-03T01:53:58.913Z,102822.70
2018-10-03T01:56:27.623Z,102820.55
2018-10-03T01:58:56.296Z,102818.86
2018-10-03T02:01:24.981Z,102822.83
2018-10-03T02:03:53.699Z,102812.43
2018-10-03T02:06:22.407Z,102817.68
2018-10-03T02:08:51.109Z,102817.23
2018-10-03T02:11:19.815Z,102821.69
2018-10-03T02:13:48.508Z,102819.47
2018-10-03T02:16:17.302Z,102815.53
2018-10-03T02:18:46.041Z,102820.82
2018-10-03T02:21:14.732Z,102825.55
2018-10-03T02:23:43.513Z,102815.56
2018-10-03T02:26:12.205Z,102816.44
2018-10-03T02:28:40.967Z,102819.06
2018-10-03T02:31:09.717Z,102813.36
2018-10-03T02:33:38.402Z,102811.95
2018-10-03T02:36:07.116Z,102808.74
2018-10-03T02:38:36.101Z,102814.31
2018-10-03T02:41:04.807Z,102816.83
2018-10-03T02:43:33.518Z,102807.23
2018-10-03T02:46:02.204Z,102824.09
2018-10-03T02:48:30.897Z,102820.57
2018-10-03T02:50:59.575Z,102826.27
2018-10-03T02:53:28.320Z,102822.33
2018-10-03T02:55:57.038Z,102826.66
2018-10-03T02:58:25.756Z,102822.27
2018-10-03T03:00:54.464Z,102823.99
2018-10-03T03:03:23.167Z,102825.23
2018-10-03T03:05:51.851Z,102820.81
2018-10-03T03:08:20.559Z,102819.89
2018-10-03T03:10:49.496Z,102817.22
2018-10-03T03:13:18.189Z,102820.65
2018-10-03T03:15:46.905Z,102817.09
2018-10-03T03:18:15.633Z,102811.36
2018-10-03T03:20:44.300Z,102820.48
2018-10-03T03:23:13.010Z,102823.63
2018-10-03T03:25:41.672Z,102816.61
2018-10-03T03:28:10.409Z,102812.25
2018-10-03T03:30:39.144Z,102807.07
2018-10-03T03:33:07.861Z,102804.48
2018-10-03T03:35:36.551Z,102808.41
2018-10-03T03:38:05.271Z,102804.89
2018-10-03T03:40:34.040Z,102806.23
2018-10-03T03:43:02.761Z,102806.66
2018-10-03T03:45:31.472Z,102806.59
2018-10-03T03:48:00.217Z,102806.10
2018-10-03T03:50:29.217Z,102813.47
2018-10-03T03:52:57.939Z,102812.15
2018-10-03T03:55:26.643Z,102814.84
2018-10-03T03:57:55.300Z,102820.13
2018-10-03T04:00:23.973Z,102821.55
2018-10-03T04:02:52.712Z,102820.75
2018-10-03T04:05:21.443Z,102816.05
2018-10-03T04:07:50.148Z,102817.02
2018-10-03T04:10:26.188Z,102817.02
2018-10-03T04:12:54.901Z,102804.41
2018-10-03T04:15:23.649Z,102803.09
2018-10-03T04:17:52.365Z,102801.88
2018-10-03T04:20:21.071Z,102797.49
2018-10-03T04:22:49.799Z,102802.74
2018-10-03T04:25:18.556Z,102801.88
2018-10-03T04:27:47.248Z,102798.39
2018-10-03T04:30:15.941Z,102801.02
2018-10-03T04:32:44.657Z,102810.55
2018-10-03T04:35:13.364Z,102810.55
2018-10-03T04:37:42.091Z,102825.47
2018-10-03T04:40:10.793Z,102824.99
2018-10-03T04:42:39.536Z,102819.26
2018-10-03T04:45:08.248Z,102821.88
2018-10-03T04:47:36.958Z,102815.70
2018-10-03T04:50:05.665Z,102821.81
2018-10-03T04:52:34.365Z,102822.84
2018-10-03T04:55:03.056Z,102830.49
2018-10-03T04:57:31.771Z,102831.36
2018-10-03T05:00:00.438Z,102839.20
2018-10-03T05:02:29.133Z,102842.20
2018-10-03T05:04:57.866Z,102838.27
2018-10-03T05:07:26.559Z,102843.87
2018-10-03T05:09:55.300Z,102840.86
2018-10-03T05:12:23.960Z,102846.91
2018-10-03T05:14:52.713Z,102849.91
2018-10-03T05:17:21.459Z,102844.66
2018-10-03T05:19:50.171Z,102837.20
2018-10-03T05:22:18.885Z,102840.69
2018-10-03T05:24:47.640Z,102840.23
2018-10-03T05:27:16.350Z,102836.30
2018-10-03T05:29:45.072Z,102840.23
2018-10-03T05:32:13.767Z,102847.19
2018-10-03T05:34:42.495Z,102851.13
2018-10-03T05:37:11.272Z,102858.62
2018-10-03T05:39:40.027Z,102867.81
2018-10-03T05:42:08.716Z,102872.20
2018-10-03T05:44:37.428Z,102872.23
2018-10-03T05:47:06.218Z,102877.48
2018-10-03T05:49:34.928Z,102877.97
2018-10-03T05:52:03.664Z,102871.85
2018-10-03T05:54:32.393Z,102871.85
2018-10-03T05:57:01.158Z,102873.17
2018-10-03T05:59:29.903Z,102870.55
2018-10-03T06:01:58.603Z,102876.17
2018-10-03T06:04:27.298Z,102882.30
2018-10-03T06:06:56.016Z,102879.66
2018-10-03T06:09:24.746Z,102882.74
2018-10-03T06:11:53.460Z,102895.88
2018-10-03T06:14:22.179Z,102894.56
2018-10-03T06:16:50.938Z,102901.13
2018-10-03T06:19:19.642Z,102901.13
2018-10-03T06:21:48.382Z,102906.80
2018-10-03T06:24:17.099Z,102902.86
2018-10-03T06:26:45.853Z,102902.86
2018-10-03T06:29:14.655Z,102905.45
2018-10-03T06:31:43.345Z,102898.81
2018-10-03T06:34:12.087Z,102908.88
2018-10-03T06:36:40.834Z,102916.30
2018-10-03T06:39:10.516Z,102916.69
2018-10-03T06:41:40.667Z,102922.36
2018-10-03T06:44:09.740Z,102917.65
2018-10-03T06:46:38.501Z,102918.41
2018-10-03T06:49:07.237Z,102923.67
2018-10-03T06:51:35.962Z,102923.67
2018-10-03T06:54:04.780Z,102922.77
2018-10-03T06:56:33.516Z,102919.22
2018-10-03T06:59:02.287Z,102927.06
2018-10-03T07:01:31.024Z,102930.52
2018-10-03T07:03:59.700Z,102930.48
2018-10-03T07:06:28.480Z,102934.36
2018-10-03T07:08:57.259Z,102945.28
2018-10-03T07:11:25.949Z,102940.45
2018-10-03T07:13:54.668Z,102944.73
2018-10-03T07:16:23.411Z,102939.41
2018-10-03T07:18:52.185Z,102943.33
2018-10-03T07:21:20.932Z,102944.57
2018-10-03T07:23:49.640Z,102947.12
2018-10-03T07:26:18.426Z,102946.23
2018-10-03T07:28:47.117Z,102954.53
2018-10-03T07:31:15.873Z,102956.23
2018-10-03T07:33:44.593Z,102962.77
2018-10-03T07:36:13.274Z,102961.00
2018-10-03T07:38:42.032Z,102964.88
2018-10-03T07:41:10.794Z,102959.11
2018-10-03T07:43:39.503Z,102960.77
2018-10-03T07:46:08.268Z,102960.67
2018-10-03T07:48:37.019Z,102963.64
2018-10-03T07:51:05.803Z,102969.77
2018-10-03T07:53:34.550Z,102967.11
2018-10-03T07:56:03.252Z,102975.37
2018-10-03T07:58:32.016Z,102977.93
2018-10-03T08:01:00.716Z,102981.84
2018-10-03T08:03:29.391Z,102979.56
2018-10-03T08:05:58.112Z,102978.11
2018-10-03T08:08:26.829Z,102976.59
2018-10-03T08:10:55.582Z,102977.28
2018-10-03T08:13:24.336Z,102977.08
2018-10-03T08:15:53.036Z,102982.66
2018-10-03T08:18:21.741Z,102984.66
2018-10-03T08:20:50.466Z,102985.80
2018-10-03T08:23:19.193Z,102992.20
2018-10-03T08:25:47.920Z,102992.05
2018-10-03T08:28:16.720Z,102988.97
2018-10-03T08:30:45.468Z,102988.00
2018-10-03T08:33:14.216Z,102986.62
2018-10-03T08:35:42.928Z,102989.55
2018-10-03T08:38:11.657Z,102992.12
2018-10-03T08:40:40.398Z,102991.55
2018-10-03T08:43:09.257Z,102993.73
2018-10-03T08:45:38.108Z,103004.08
2018-10-03T08:48:06.781Z,103006.64
2018-10-03T08:50:35.500Z,103006.98
2018-10-03T08:53:04.277Z,103008.61
2018-10-03T08:55:33.010Z,103006.39
2018-10-03T08:58:01.769Z,103002.30
2018-10-03T09:00:30.529Z,103005.75
2018-10-03T09:02:59.250Z,103009.74
2018-10-03T09:05:27.925Z,103009.81
2018-10-03T09:08:07.260Z,103015.87
2018-10-03T09:10:36.067Z,103013.66
2018-10-03T09:13:04.828Z,103029.03
2018-10-03T09:15:33.566Z,103020.14
2018-10-03T09:18:02.295Z,103035.37
2018-10-03T09:20:31.128Z,103032.47
2018-10-03T09:22:59.830Z,103040.29
2018-10-03T09:25:28.615Z,103037.20
2018-10-03T09:27:57.343Z,103039.49
2018-10-03T09:30:26.050Z,103040.29
2018-10-03T09:32:54.780Z,103045.14
2018-10-03T09:35:23.540Z,103043.78
2018-10-03T09:37:52.321Z,103046.41
2018-10-03T09:40:21.039Z,103034.58
2018-10-03T09:42:49.768Z,103040.83
2018-10-03T09:45:18.505Z,103040.02
2018-10-03T09:47:47.284Z,103037.73
2018-10-03T09:50:16.016Z,103039.69
2018-10-03T09:52:44.757Z,103037.06
2018-10-03T09:55:13.475Z,103037.96
2018-10-03T09:57:42.250Z,103046.16
2018-10-03T10:00:11.038Z,103053.98
2018-10-03T10:02:39.858Z,103056.80
2018-10-03T10:05:08.680Z,103058.27
2018-10-03T10:07:37.407Z,103062.28
2018-10-03T10:10:06.188Z,103063.30
2018-10-03T10:12:34.882Z,103064.02
2018-10-03T10:15:03.634Z,103072.70
2018-10-03T10:17:32.324Z,103069.63
2018-10-03T10:20:01.094Z,103077.90
2018-10-03T10:22:29.764Z,103080.77
2018-10-03T10:24:58.533Z,103082.95
2018-10-03T10:27:27.257Z,103077.68
2018-10-03T10:29:56.014Z,103071.89
2018-10-03T10:32:24.805Z,103087.21
2018-10-03T10:34:53.538Z,103089.21
2018-10-03T10:37:22.275Z,103080.06
2018-10-03T10:39:51.316Z,103079.88
2018-10-03T10:42:21.165Z,103082.02
2018-10-03T10:44:50.130Z,103080.94
2018-10-03T10:47:18.957Z,103087.22
2018-10-03T10:49:47.836Z,103078.94
2018-10-03T10:52:16.720Z,103078.59
2018-10-03T10:54:45.431Z,103080.66
2018-10-03T10:57:14.308Z,103080.20
2018-10-03T10:59:43.227Z,103080.34
2018-10-03T11:02:12.152Z,103080.44
2018-10-03T11:04:40.984Z,103077.49
2018-10-03T11:07:09.773Z,103076.05
2018-10-03T11:09:38.848Z,103076.72
2018-10-03T11:12:07.708Z,103078.09
2018-10-03T11:14:36.432Z,103082.04
2018-10-03T11:17:05.224Z,103082.86
2018-10-03T11:19:33.949Z,103082.38
2018-10-03T11:22:02.896Z,103074.75
2018-10-03T11:24:31.728Z,103079.81
2018-10-03T11:27:00.304Z,103081.95
2018-10-03T11:29:29.022Z,103080.89
2018-10-03T11:31:57.825Z,103081.22
2018-10-03T11:34:26.569Z,103086.05
2018-10-03T11:36:55.302Z,103076.93
2018-10-03T11:39:24.013Z,103076.02
2018-10-03T11:41:52.839Z,103073.76
2018-10-03T11:44:21.555Z,103073.88
2018-10-03T11:46:50.316Z,103079.16
2018-10-03T11:49:19.068Z,103082.79
2018-10-03T11:51:47.756Z,103084.84
2018-10-03T11:54:16.485Z,103075.36
2018-10-03T11:56:45.184Z,103073.50
2018-10-03T11:59:13.908Z,103071.20
2018-10-03T12:01:42.636Z,103064.27
2018-10-03T12:04:11.407Z,103065.12
2018-10-03T12:06:40.184Z,103071.39
2018-10-03T12:09:10.906Z,103066.46
2018-10-03T12:11:39.692Z,103067.05
2018-10-03T12:14:08.971Z,103064.99
2018-10-03T12:16:37.899Z,103062.60
2018-10-03T12:19:06.815Z,103055.23
2018-10-03T12:21:35.535Z,103058.52
2018-10-03T12:24:04.249Z,103055.28
2018-10-03T12:26:32.982Z,103055.91
2018-10-03T12:29:01.700Z,103052.09
2018-10-03T12:31:30.465Z,103054.86
2018-10-03T12:33:59.137Z,103046.20
2018-10-03T12:36:27.853Z,103049.67
2018-10-03T12:38:56.769Z,103043.06
2018-10-03T12:41:25.568Z,103042.43
2018-10-03T12:43:54.399Z,103041.78
2018-10-03T12:46:23.178Z,103035.17
2018-10-03T12:48:51.944Z,103033.08
2018-10-03T12:51:20.645Z,103035.38
2018-10-03T12:53:49.340Z,103028.86
2018-10-03T12:56:18.054Z,103029.66
2018-10-03T12:58:46.817Z,103031.09
2018-10-03T13:01:15.541Z,103029.53
2018-10-03T13:03:44.258Z,103024.62
2018-10-03T13:06:25.924Z,103026.58
2018-10-03T13:08:54.645Z,103018.55
2018-10-03T13:11:23.355Z,103011.88
2018-10-03T13:13:52.145Z,103019.86
2018-10-03T13:16:20.980Z,103019.84
2018-10-03T13:18:49.687Z,103019.66
2018-10-03T13:21:18.448Z,103023.58
2018-10-03T13:23:47.200Z,103030.70
2018-10-03T13:26:15.926Z,103021.61
2018-10-03T13:28:44.681Z,103011.22
2018-10-03T13:31:13.371Z,103008.17
2018-10-03T13:33:42.069Z,103011.56
2018-10-03T13:36:10.792Z,103003.61
2018-10-03T13:38:39.504Z,102997.00
2018-10-03T13:41:08.240Z,102999.17
2018-10-03T13:43:36.957Z,102995.44
2018-10-03T13:46:05.688Z,102982.42
2018-10-03T13:48:34.401Z,102986.30
2018-10-03T13:51:03.162Z,102982.52
2018-10-03T13:53:31.928Z,102980.39
2018-10-03T13:56:00.666Z,102983.13
2018-10-03T13:58:29.416Z,102981.29
2018-10-03T14:00:58.120Z,102970.06
2018-10-03T14:03:26.898Z,102982.94
2018-10-03T14:05:55.663Z,102980.48
2018-10-03T14:08:24.416Z,102987.41
2018-10-03T14:10:53.343Z,102984.15
2018-10-03T14:13:22.437Z,102983.23
2018-10-03T14:15:51.204Z,102982.42
2018-10-03T14:18:19.965Z,102980.70
2018-10-03T14:20:48.740Z,102979.83
2018-10-03T14:23:17.520Z,102967.77
2018-10-03T14:25:46.252Z,102971.27
2018-10-03T14:28:14.967Z,102969.48
2018-10-03T14:30:43.720Z,102969.23
2018-10-03T14:33:12.441Z,102972.74
2018-10-03T14:35:41.123Z,102973.89
2018-10-03T14:38:10.349Z,102969.99
2018-10-03T14:40:39.157Z,102976.55
2018-10-03T14:43:08.028Z,102974.66
2018-10-03T14:45:36.828Z,102969.48
2018-10-03T14:48:05.809Z,102968.23
2018-10-03T14:50:34.529Z,102970.45
2018-10-03T14:53:03.260Z,102972.91
2018-10-03T14:55:32.039Z,102971.81
2018-10-03T14:58:00.888Z,102967.40
2018-10-03T15:00:30.013Z,102964.38
2018-10-03T15:02:58.837Z,102963.62
2018-10-03T15:05:27.722Z,102961.66
2018-10-03T15:07:56.660Z,102959.69
2018-10-03T15:10:25.409Z,102958.13
2018-10-03T15:12:54.379Z,102956.93
2018-10-03T15:15:23.142Z,102949.20
2018-10-03T15:17:52.019Z,102947.19
2018-10-03T15:20:20.818Z,102943.45
2018-10-03T15:22:49.618Z,102947.00
2018-10-03T15:25:18.417Z,102947.78
2018-10-03T15:27:47.417Z,102946.34
2018-10-03T15:30:16.326Z,102947.45
2018-10-03T15:32:45.102Z,102957.30
2018-10-03T15:35:14.086Z,102956.83
2018-10-03T15:37:42.940Z,102954.19
2018-10-03T15:40:11.828Z,102963.77
2018-10-03T15:42:40.638Z,102951.66
2018-10-03T15:45:09.390Z,102952.60
2018-10-03T15:47:38.258Z,102950.05
2018-10-03T15:50:07.740Z,102958.81
2018-10-03T15:52:36.508Z,102954.19
2018-10-03T15:55:05.547Z,102961.45
2018-10-03T15:57:34.219Z,102958.61
2018-10-03T16:00:03.202Z,102943.53
2018-10-03T16:02:32.089Z,102949.44
2018-10-03T16:05:00.893Z,102948.77
2018-10-03T16:07:29.717Z,102945.27
2018-10-03T16:09:58.485Z,102949.29
2018-10-03T16:12:27.412Z,102945.00
2018-10-03T16:14:56.132Z,102942.82
2018-10-03T16:17:25.001Z,102944.59
2018-10-03T16:19:53.757Z,102944.70
2018-10-03T16:22:22.510Z,102942.25
2018-10-03T16:24:51.232Z,102949.05
2018-10-03T16:27:19.980Z,102944.31
2018-10-03T16:29:48.709Z,102947.47
2018-10-03T16:32:17.422Z,102949.41
2018-10-03T16:34:46.120Z,102953.36
2018-10-03T16:37:14.972Z,102947.80
2018-10-03T16:39:43.704Z,102949.19
2018-10-03T16:42:12.430Z,102956.45
2018-10-03T16:44:41.171Z,102953.41
2018-10-03T16:47:10.586Z,102954.73
2018-10-03T16:49:44.494Z,102954.73
2018-10-03T16:52:13.168Z,102951.83
2018-10-03T16:54:42.084Z,102958.78
2018-10-03T16:57:11.080Z,102965.08
2018-10-03T16:59:40.005Z,102954.42
2018-10-03T17:02:08.804Z,102959.23
2018-10-03T17:04:37.664Z,102956.19
2018-10-03T17:07:06.748Z,102947.95
2018-10-03T17:09:35.508Z,102955.42
2018-10-03T17:12:04.355Z,102955.39
2018-10-03T17:14:36.389Z,102964.97
2018-10-03T17:17:05.276Z,102956.36
2018-10-03T17:19:34.256Z,102953.86
2018-10-03T17:22:03.379Z,102963.55
2018-10-03T17:24:36.321Z,102966.44
2018-10-03T17:27:05.147Z,102961.73
2018-10-03T17:29:33.939Z,102962.15
2018-10-03T17:32:02.891Z,102962.15
2018-10-03T17:34:31.837Z,102960.42
2018-10-03T17:37:00.605Z,102955.33
2018-10-03T17:39:29.548Z,102965.05
2018-10-03T17:41:58.572Z,102959.44
2018-10-03T17:44:27.263Z,102957.36
2018-10-03T17:46:57.163Z,102956.59
2018-10-03T17:49:25.875Z,102959.63
2018-10-03T17:51:54.592Z,102966.81
2018-10-03T17:54:23.301Z,102964.63
2018-10-03T17:56:52.001Z,102966.46
2018-10-03T17:59:20.769Z,102969.92
2018-10-03T18:01:52.211Z,102971.75
2018-10-03T18:04:20.997Z,102970.08
2018-10-03T18:06:49.732Z,102967.52
2018-10-03T18:09:18.504Z,102968.34
2018-10-03T18:11:47.197Z,102975.78
2018-10-03T18:14:15.908Z,102976.30
2018-10-03T18:16:44.634Z,102977.25
2018-10-03T18:19:13.350Z,102975.62
2018-10-03T18:21:42.043Z,102977.05
2018-10-03T18:24:10.793Z,102972.25
2018-10-03T18:26:39.519Z,102974.81
2018-10-03T18:29:08.246Z,102969.56
2018-10-03T18:31:37.051Z,102976.13
2018-10-03T18:34:05.834Z,102976.13
2018-10-03T18:36:34.547Z,102977.00
2018-10-03T18:39:03.365Z,102983.56
2018-10-03T18:41:32.048Z,102978.81
2018-10-03T18:44:00.768Z,102981.83
2018-10-03T18:46:29.503Z,102985.03
2018-10-03T18:49:01.178Z,102992.42
2018-10-03T18:51:29.855Z,102986.28
2018-10-03T18:53:58.583Z,102985.83
2018-10-03T18:56:27.377Z,102983.65
2018-10-03T18:58:56.140Z,102982.34
2018-10-03T19:01:24.912Z,102981.54
2018-10-03T19:03:53.597Z,102979.30
2018-10-03T19:06:22.274Z,102980.61
2018-10-03T19:08:51.032Z,102984.55
2018-10-03T19:11:19.786Z,102985.48
2018-10-03T19:13:48.460Z,102985.48
2018-10-03T19:16:17.263Z,102983.72
2018-10-03T19:18:45.960Z,102984.07
2018-10-03T19:21:14.648Z,102984.45
2018-10-03T19:23:43.376Z,102987.05
2018-10-03T19:26:12.124Z,102989.16
2018-10-03T19:28:40.953Z,102984.33
2018-10-03T19:31:09.691Z,102982.53
2018-10-03T19:33:38.392Z,102986.47
2018-10-03T19:36:07.112Z,102983.47
2018-10-03T19:38:35.894Z,102978.72
2018-10-03T19:41:04.596Z,102976.19
2018-10-03T19:43:33.440Z,102978.05
2018-10-03T19:46:02.113Z,102982.53
2018-10-03T19:48:30.878Z,102977.37
2018-10-03T19:50:59.587Z,102975.31
2018-10-03T19:53:35.073Z,102976.20
2018-10-03T19:56:04.365Z,102972.34
2018-10-03T19:58:33.364Z,102973.23
2018-10-03T20:01:02.068Z,102974.48
2018-10-03T20:03:31.052Z,102977.58
2018-10-03T20:05:59.722Z,102974.09
2018-10-03T20:08:28.405Z,102978.90
2018-10-03T20:10:57.101Z,102977.61
2018-10-03T20:13:25.808Z,102976.75
2018-10-03T20:15:54.570Z,102975.79
2018-10-03T20:18:23.399Z,102960.81
2018-10-03T20:20:52.375Z,102965.55
2018-10-03T20:23:21.476Z,102963.34
2018-10-03T20:25:50.206Z,102963.76
2018-10-03T20:28:18.988Z,102959.82
2018-10-03T20:30:47.708Z,102959.73
2018-10-03T20:33:16.492Z,102954.86
2018-10-03T20:35:45.177Z,102959.16
2018-10-03T20:38:13.871Z,102965.23
2018-10-03T20:40:42.570Z,102960.44
2018-10-03T20:43:11.310Z,102963.00
2018-10-03T20:45:40.026Z,102964.76
2018-10-03T20:48:08.851Z,102963.00
2018-10-03T20:50:37.593Z,102963.00
2018-10-03T20:53:06.337Z,102959.06
2018-10-03T20:55:35.034Z,102953.80
2018-10-03T20:58:03.754Z,102961.23
2018-10-03T21:00:32.476Z,102964.31
2018-10-03T21:03:01.200Z,102952.11
2018-10-03T21:05:29.906Z,102956.88
2018-10-03T21:07:58.610Z,102943.30
2018-10-03T21:10:27.321Z,102947.75
2018-10-03T21:12:56.105Z,102946.89
2018-10-03T21:15:24.846Z,102945.64
2018-10-03T21:17:53.590Z,102949.67
2018-10-03T21:20:22.325Z,102943.11
2018-10-03T21:22:51.010Z,102946.60
2018-10-03T21:25:19.737Z,102943.11
2018-10-03T21:27:48.451Z,102941.80
2018-10-03T21:30:17.127Z,102945.29
2018-10-03T21:32:45.905Z,102944.33
2018-10-03T21:35:14.661Z,102943.49
2018-10-03T21:37:43.386Z,102943.97
2018-10-03T21:40:12.117Z,102942.25
2018-10-03T21:42:40.800Z,102941.80
2018-10-03T21:45:09.564Z,102936.58
2018-10-03T21:47:38.308Z,102934.81
2018-10-03T21:50:07.068Z,102931.39
2018-10-03T21:52:35.760Z,102925.69
2018-10-03T21:55:04.494Z,102919.16
2018-10-03T21:57:33.212Z,102916.09
2018-10-03T22:00:01.898Z,102917.40
2018-10-03T22:02:30.627Z,102917.40
2018-10-03T22:04:59.365Z,102912.14
2018-10-03T22:07:28.081Z,102919.61
2018-10-03T22:09:56.789Z,102920.53
2018-10-03T22:12:25.483Z,102925.78
2018-10-03T22:14:54.315Z,102920.53
2018-10-03T22:17:24.678Z,102918.42
2018-10-03T22:19:54.553Z,102922.36
2018-10-03T22:22:23.308Z,102921.94
2018-10-03T22:24:52.057Z,102923.26
2018-10-03T22:27:20.759Z,102919.95
2018-10-03T22:29:49.429Z,102914.86
2018-10-03T22:32:18.084Z,102914.06
2018-10-03T22:34:46.791Z,102913.64
2018-10-03T22:37:15.565Z,102918.48
2018-10-03T22:39:44.276Z,102917.67
2018-10-03T22:42:12.957Z,102915.56
2018-10-03T22:44:41.661Z,102913.35
2018-10-03T22:47:10.341Z,102917.28
2018-10-03T22:49:39.053Z,102917.67
2018-10-03T22:52:07.772Z,102913.70
2018-10-03T22:54:36.463Z,102911.08
2018-10-03T22:57:05.161Z,102913.70
2018-10-03T22:59:33.892Z,102903.69
2018-10-03T23:02:02.616Z,102906.31
2018-10-03T23:04:31.344Z,102902.86
2018-10-03T23:07:00.016Z,102901.13
2018-10-03T23:09:28.721Z,102902.02
2018-10-03T23:11:57.425Z,102901.57
2018-10-03T23:14:26.128Z,102902.86
2018-10-03T23:16:54.983Z,102892.45
2018-10-03T23:19:23.785Z,102895.97
2018-10-03T23:21:52.447Z,102897.34
2018-10-03T23:24:21.203Z,102895.20
2018-10-03T23:26:49.896Z,102892.55
2018-10-03T23:29:18.588Z,102890.81
2018-10-03T23:31:47.282Z,102888.61
2018-10-03T23:34:15.967Z,102892.92
2018-10-03T23:36:44.659Z,102895.55
2018-10-03T23:39:13.394Z,102895.55
2018-10-03T23:41:42.231Z,102891.27
2018-10-03T23:44:11.253Z,102894.75
2018-10-03T23:46:39.963Z,102893.05
2018-10-03T23:49:08.691Z,102889.24
2018-10-03T23:51:37.389Z,102894.13
2018-10-03T23:54:06.112Z,102891.13
2018-10-03T23:56:34.845Z,102890.27
2018-10-03T23:59:03.541Z,102884.17
